Flight Track Log - Related Links

Times and Time Zones

All times are in EDT time to prevent confusion due to time zone crossing. See the N700QA flight status page for this flight to view local times or setup timezone preferences in your user account.

Time Position Orientation Groundspeed Altitude Reporting Facility
EDT Latitude Longitude Course Direction KTS MPH feet Rate Location/Type
Fri 05:08:32 AM 26.0800 -80.0997 81° East 215 247 2,000  Level Miami Center
Fri 05:09:18 AM 26.0853 -80.0514 83° East 210 242 4,200 2,667 Climbing Miami Center
Fri 05:10:20 AM 26.0803 -79.9819 95° East 229 264 6,800 2,297 Climbing Miami Center
Fri 05:11:26 AM 26.0633 -79.8981 103° East 249 287 9,100 2,082 Climbing Miami Center
Fri 05:12:47 AM 26.0469 -79.7844 99° East 303 349 11,900 2,167 Climbing Miami Center
Fri 05:13:50 AM 26.0317 -79.7031 102° East 294 338 14,300 1,934 Climbing Miami Center
Fri 05:14:48 AM 26.0186 -79.6219 100° East 274 315 15,800 1,361 Climbing Miami Center
Fri 05:15:49 AM 26.0033 -79.5431 102° East 274 315 17,000 1,180 Climbing Miami Center
Fri 05:16:50 AM 25.9825 -79.4361 98° East 301 346 18,200 1,271 Climbing Miami Center
Fri 05:17:47 AM 25.9611 -79.3456 105° East 324 373 19,500 1,436 Climbing Miami Center
Fri 05:18:47 AM 25.9083 -79.2453 120° Southeast 334 384 21,000 1,721 Climbing Miami Center
Fri 05:19:49 AM 25.8597 -79.1564 121° Southeast 339 390 23,000 1,623 Climbing Miami Center
Fri 05:20:49 AM 25.8150 -79.0678 119° Southeast 339 390 24,300 992 Climbing Miami Center
Fri 05:21:50 AM 25.7725 -78.9747 117° Southeast 339 390 25,000 958 Climbing Miami Center
Fri 05:22:48 AM 25.7175 -78.8747 121° Southeast 353 406 26,200 1,350 Climbing Miami Center
Fri 05:23:50 AM 25.6728 -78.7817 118° Southeast 353 406 27,700 1,150 Climbing Miami Center
Fri 05:24:48 AM 25.6217 -78.6864 121° Southeast 353 406 28,500 605 Climbing Miami Center
Fri 05:25:49 AM 25.5708 -78.5842 119° Southeast 365 420 28,900 492 Climbing Miami Center
Fri 05:26:50 AM 25.5236 -78.4961 121° Southeast 370 426 29,500 661 Climbing Miami Center
Fri 05:27:47 AM 25.4683 -78.3894 120° Southeast 382 440 30,200 605 Climbing Miami Center
Fri 05:28:49 AM 25.4131 -78.2806 119° Southeast 389 448 30,700 950 Climbing Miami Center
Fri 05:29:47 AM 25.3575 -78.1742 120° Southeast 394 453 32,100 1,160 Climbing Miami Center
Fri 05:30:48 AM 25.3061 -78.0747 120° Southeast 389 448 33,000 446 Climbing Miami Center
Fri 05:31:48 AM 25.2506 -77.9708 121° Southeast 389 448 33,000 49 Level Miami Center
Fri 05:32:50 AM 25.1928 -77.8578 119° Southeast 399 459 33,100 50 Climbing Miami Center
Fri 05:33:48 AM 25.1331 -77.7450 120° Southeast 411 473 33,100 254 Level Miami Center
Fri 05:34:48 AM 25.0708 -77.6297 121° Southeast 427 491 33,600 857 Climbing Miami Center
Fri 05:35:47 AM 25.0067 -77.4964 118° Southeast 427 491 34,800 689 Climbing Miami Center
Fri 05:36:50 AM 24.9444 -77.3883 122° Southeast 427 491 35,000 98 Climbing Miami Center
Fri 05:37:50 AM 24.8822 -77.2711 120° Southeast 427 491 35,000 50 Level Miami Center
Fri 05:38:49 AM 24.8219 -77.1564 120° Southeast 427 491 35,100 51 Climbing Miami Center
Fri 05:39:47 AM 24.7572 -77.0372 121° Southeast 437 503 35,100 203 Level Miami Center
Fri 05:40:47 AM 24.6947 -76.9183 120° Southeast 447 514 35,500 829 Climbing Miami Center
Fri 05:41:50 AM 24.6319 -76.8039 121° Southeast 447 514 36,800 694 Climbing Miami Center
Fri 05:42:48 AM 24.5733 -76.6897 119° Southeast 437 503 36,900 102 Climbing Miami Center
Fri 05:43:48 AM 24.5125 -76.5803 121° Southeast 432 497 37,000 50 Climbing Miami Center
Fri 05:44:48 AM 24.4494 -76.4639 121° Southeast 426 490 37,000  Level Miami Center
Fri 05:45:49 AM 24.3864 -76.3500 121° Southeast 431 496 37,000  Level Miami Center
Fri 05:46:50 AM 24.3256 -76.2294 119° Southeast 436 502 37,000  Level Miami Center
Fri 05:47:47 AM 24.2581 -76.1136 123° Southeast 446 513 37,000 51 Level Miami Center
Fri 05:48:47 AM 24.1947 -75.9931 120° Southeast 446 513 37,100  Climbing Miami Center
Fri 05:49:47 AM 24.1292 -75.8728 121° Southeast 451 519 37,000  Descending Miami Center
Fri 05:50:47 AM 24.0633 -75.7506 121° Southeast 451 519 37,100 50 Climbing Miami Center
Fri 05:51:47 AM 23.9978 -75.6283 120° Southeast 456 525 37,100  Level Miami Center
Fri 05:52:47 AM 23.9361 -75.5219 122° Southeast 456 525 37,100  Level Miami Center
Fri 05:53:47 AM 23.8661 -75.3978 122° Southeast 463 533 37,100  Level Miami Center
Fri 05:54:47 AM 23.8000 -75.2758 121° Southeast 463 533 37,100  Level Miami Center
Fri 05:55:47 AM 23.7319 -75.1542 121° Southeast 463 533 37,100  Level Miami Center
Fri 05:56:47 AM 23.6633 -75.0281 121° Southeast 463 533 37,100  Level Miami Center
Fri 05:57:47 AM 23.5950 -74.9067 122° Southeast 468 539 37,100  Level Miami Center
Fri 05:58:47 AM 23.5267 -74.7853 122° Southeast 468 539 37,100  Level Miami Center
Fri 05:59:47 AM 23.4578 -74.6597 121° Southeast 468 539 37,100  Level Miami Center
Fri 06:00:47 AM 23.3872 -74.5386 122° Southeast 468 539 37,100  Level Miami Center
Fri 06:01:47 AM 23.3225 -74.4133 119° Southeast 468 539 37,100  Level Miami Center
Fri 06:02:47 AM 23.2514 -74.2925 123° Southeast 468 539 37,100  Level Miami Center
Fri 06:03:47 AM 23.1783 -74.1697 123° Southeast 474 545 37,100  Level Miami Center
Fri 06:04:47 AM 23.1114 -74.0469 121° Southeast 474 545 37,100  Level Miami Center
Fri 06:05:47 AM 23.0422 -73.9242 121° Southeast 474 545 37,100  Level Miami Center
Fri 06:06:47 AM 22.9728 -73.8017 122° Southeast 474 545 37,100  Level Miami Center
Fri 06:07:47 AM 22.8992 -73.6794 123° Southeast 474 545 37,100  Level Miami Center
Fri 06:08:47 AM 22.8319 -73.5550 120° Southeast 474 545 37,100  Level Miami Center
Fri 06:09:47 AM 22.7517 -73.4219 123° Southeast 474 545 37,100  Level Miami Center
Fri 06:10:47 AM 22.6819 -73.3000 122° Southeast 474 545 37,100  Level Miami Center
Fri 06:11:47 AM 22.6122 -73.1758 121° Southeast 474 545 37,100  Level Miami Center
Fri 06:12:47 AM 22.5400 -73.0497 122° Southeast 480 552 37,100  Level Miami Center
Fri 06:13:47 AM 22.4703 -72.9283 122° Southeast 480 552 37,100  Level Miami Center
Fri 06:14:47 AM 22.4003 -72.8069 122° Southeast 480 552 37,100  Level Miami Center
Fri 06:15:47 AM 22.3300 -72.6836 122° Southeast 480 552 37,100  Level Miami Center
Fri 06:16:47 AM 22.2578 -72.5625 123° Southeast 480 552 37,100  Level Miami Center
Fri 06:17:47 AM 22.1875 -72.4414 122° Southeast 485 558 37,100  Level Miami Center
Fri 06:18:47 AM 22.1172 -72.3206 122° Southeast 480 552 37,100  Level Miami Center
Fri 06:19:47 AM 22.0467 -72.2022 123° Southeast 474 545 37,100  Level Miami Center
Fri 06:20:47 AM 21.9761 -72.0817 122° Southeast 474 545 37,100  Level Miami Center
Fri 06:21:47 AM 21.9056 -71.9611 122° Southeast 474 545 37,100  Level Miami Center
Fri 06:22:47 AM 21.8350 -71.8431 123° Southeast 474 545 37,100  Level Miami Center
Fri 06:23:47 AM 21.7664 -71.7250 122° Southeast 469 540 37,100  Level Miami Center
Fri 06:24:47 AM 21.6978 -71.6094 123° Southeast 469 540 37,100  Level Miami Center
Fri 06:25:47 AM 21.6292 -71.4939 123° Southeast 469 540 37,100  Level Miami Center
Fri 06:26:47 AM 21.5603 -71.3783 123° Southeast 463 533 37,100  Level Miami Center
Fri 06:27:47 AM 21.4914 -71.2631 123° Southeast 463 533 37,100  Level Miami Center
Fri 06:28:47 AM 21.4294 -71.1608 123° Southeast 463 533 37,100 -50 Level Miami Center
Fri 06:29:47 AM 21.3717 -71.0678 124° Southeast 463 533 37,000  Descending Miami Center
Fri 06:30:47 AM 21.2933 -70.9308 122° Southeast 431 496 37,100  Climbing Miami Center
Fri 06:31:47 AM 21.2264 -70.8181 122° Southeast 441 507 37,000  Descending Miami Center
Fri 06:32:47 AM 21.1572 -70.7033 123° Southeast 446 513 37,100  Climbing Miami Center
Fri 06:33:47 AM 21.0881 -70.5889 123° Southeast 451 519 37,000 -50 Descending Miami Center
Fri 06:34:47 AM 21.0231 -70.4786 122° Southeast 451 519 37,000  Level Miami Center
Fri 06:35:47 AM 20.9536 -70.3642 123° Southeast 451 519 37,000  Level Miami Center
Fri 06:36:47 AM 20.8864 -70.2522 123° Southeast 451 519 37,000  Level Miami Center
Fri 06:37:47 AM 20.8169 -70.1403 124° Southeast 451 519 37,000  Level Miami Center
Fri 06:38:47 AM 20.7517 -70.0283 122° Southeast 451 519 37,000  Level Miami Center
Fri 06:39:47 AM 20.6819 -69.9144 123° Southeast 451 519 37,000  Level Miami Center
Fri 06:40:47 AM 20.6122 -69.8031 124° Southeast 451 519 37,000  Level Miami Center
Fri 06:41:47 AM 20.5447 -69.6892 122° Southeast 451 519 37,000  Level Miami Center
Fri 06:42:47 AM 20.4769 -69.5778 123° Southeast 451 519 37,000  Level Miami Center
Fri 06:43:47 AM 20.4094 -69.4689 123° Southeast 451 519 37,000 50 Level Miami Center
Fri 06:44:47 AM 20.3394 -69.3578 124° Southeast 451 519 37,100  Climbing Miami Center
Fri 06:45:47 AM 20.2736 -69.2444 122° Southeast 451 519 37,000  Descending Miami Center
Fri 06:46:47 AM 20.2017 -69.1358 125° Southeast 451 519 37,100  Climbing Miami Center
Fri 06:47:47 AM 20.1358 -69.0272 123° Southeast 451 519 37,000 -50 Descending Miami Center
Fri 06:48:47 AM 20.0658 -68.9164 124° Southeast 451 519 37,000  Level Miami Center
Fri 06:49:47 AM 20.0097 -68.7964 116° Southeast 451 519 37,000  Level Miami Center
Fri 06:50:47 AM 19.9575 -68.6739 114° Southeast 451 519 37,000  Level Miami Center
Fri 06:51:47 AM 19.9053 -68.5539 115° Southeast 457 526 37,000  Level Miami Center
Fri 06:52:47 AM 19.8531 -68.4317 114° Southeast 457 526 37,000  Level Miami Center
Fri 06:53:17 AM 19.8000 -68.3500 125° Southeast 460 529 37,000  Level San Juan Center
Fri 06:54:17 AM 19.7500 -68.2333 114° Southeast 450 518 37,000  Level San Juan Center
Fri 06:55:18 AM 19.7000 -68.1000 112° Southeast 460 529 37,000  Level San Juan Center
Fri 06:56:18 AM 19.6500 -67.9833 114° Southeast 460 529 37,000  Level San Juan Center
Fri 06:57:18 AM 19.5833 -67.8667 121° Southeast 470 541 37,000  Level San Juan Center
Fri 06:58:19 AM 19.5333 -67.7333 112° Southeast 470 541 37,000  Level San Juan Center
Fri 06:59:19 AM 19.4833 -67.6167 114° Southeast 470 541 37,000  Level San Juan Center
Fri 07:00:19 AM 19.4167 -67.4833 118° Southeast 470 541 37,000  Level San Juan Center
Fri 07:01:20 AM 19.3833 -67.3500 105° East 470 541 37,000  Level San Juan Center
Fri 07:02:20 AM 19.3500 -67.2167 105° East 480 552 37,000  Level San Juan Center
Fri 07:03:20 AM 19.3167 -67.0667 103° East 480 552 37,000  Level San Juan Center
Fri 07:04:21 AM 19.2833 -66.9333 105° East 480 552 37,000  Level San Juan Center
Fri 07:05:21 AM 19.2333 -66.8000 112° Southeast 480 552 37,000  Level San Juan Center
Fri 07:06:21 AM 19.1667 -66.6833 121° Southeast 480 552 37,000  Level San Juan Center
Fri 07:07:22 AM 19.1000 -66.5667 121° Southeast 470 541 37,000  Level San Juan Center
Fri 07:08:22 AM 19.0500 -66.4333 112° Southeast 480 552 37,000 50 Level San Juan Center
Fri 07:09:22 AM 18.9833 -66.3167 121° Southeast 480 552 37,100 50 Climbing San Juan Center
Fri 07:10:22 AM 18.9167 -66.1833 118° Southeast 480 552 37,100  Level San Juan Center
Fri 07:11:22 AM 18.8667 -66.0667 114° Southeast 480 552 37,100  Level San Juan Center
Fri 07:12:23 AM 18.8000 -65.9333 118° Southeast 480 552 37,100  Level San Juan Center
Fri 07:13:23 AM 18.7500 -65.8167 114° Southeast 480 552 37,100  Level San Juan Center
Fri 07:14:23 AM 18.6833 -65.6833 118° Southeast 470 541 37,100  Level San Juan Center
Fri 07:15:24 AM 18.6167 -65.5500 118° Southeast 470 541 37,100  Level San Juan Center
Fri 07:16:24 AM 18.5667 -65.4333 114° Southeast 470 541 37,100  Level San Juan Center
Fri 07:17:24 AM 18.5000 -65.3000 118° Southeast 470 541 37,100  Level San Juan Center
Fri 07:18:25 AM 18.4333 -65.1667 118° Southeast 470 541 37,100  Level San Juan Center
Fri 07:19:25 AM 18.3833 -65.0667 118° Southeast 480 552 37,100  Level San Juan Center
Fri 07:20:25 AM 18.3167 -64.9333 118° Southeast 480 552 37,100  Level San Juan Center
Fri 07:21:26 AM 18.2500 -64.8000 118° Southeast 490 564 37,100  Level San Juan Center
Fri 07:22:26 AM 18.1833 -64.6667 118° Southeast 470 541 37,100  Level San Juan Center
Fri 07:23:26 AM 18.1333 -64.5500 114° Southeast 470 541 37,100  Level San Juan Center
Fri 07:24:27 AM 18.0667 -64.4333 121° Southeast 470 541 37,100  Level San Juan Center
Fri 07:25:27 AM 18.0000 -64.3000 118° Southeast 470 541 37,100  Level San Juan Center
Fri 07:26:27 AM 17.9333 -64.1833 121° Southeast 480 552 37,100 -99 Level San Juan Center
Fri 07:27:28 AM 17.8833 -64.0500 111° Southeast 470 541 36,900 -893 Descending San Juan Center
Fri 07:28:28 AM 17.8167 -63.9333 121° Southeast 480 552 35,300 -1,800 Descending San Juan Center
Fri 07:29:28 AM 17.7500 -63.8000 118° Southeast 490 564 33,300 -1,785 Descending San Juan Center
Fri 07:30:29 AM 17.6833 -63.6833 121° Southeast 490 564 31,700 -1,785 Descending San Juan Center
Fri 07:31:29 AM 17.6333 -63.5500 111° Southeast 480 552 29,700 -2,000 Descending San Juan Center
Fri 07:32:29 AM 17.5667 -63.4333 121° Southeast 470 541 27,700 -2,331 Descending San Juan Center
Fri 07:33:30 AM 17.5000 -63.3167 121° Southeast 460 529 25,000 -2,430 Descending San Juan Center
Fri 07:34:30 AM 17.4500 -63.2000 114° Southeast 420 483 22,800 -2,200 Descending San Juan Center
Fri 07:35:30 AM 17.4000 -63.1000 118° Southeast 380 437 20,600 -1,884 Descending San Juan Center
Fri 07:36:31 AM 17.3500 -63.0000 118° Southeast 370 426 19,000 -1,091 Descending San Juan Center
Fri 07:37:31 AM 17.3167 -62.9000 109° East 360 414 18,400 -600 Descending San Juan Center
Fri 07:39:00 AM 17.2985 -62.7167 96° East  Level FlightAware Approximate
Fri 07:46:00 AM 17.1357 -61.8596 104° East  Level FlightAware Approximate
Fri 07:47:00 AM 17.1367 -61.7927 136° Southeast  Level Estimated
Fri 07:48:00 AM 17.1367 -61.7927 136° Southeast  Level Estimated
Fri 07:49:00 AM 17.1367 -61.7927 136° Southeast  Level Estimated
Fri 07:50:00 AM 17.1367 -61.7927 136° Southeast  Level Estimated
Fri 07:51:00 AM 17.1367 -61.7927 136° Southeast  Level Estimated
Fri 07:52:00 AM 17.1367 -61.7927 136° Southeast  Level Estimated
Fri 07:53:00 AM 17.1367 -61.7927 136° Southeast  Level Estimated
Fri 07:54:00 AM 17.1367 -61.7927 136° Southeast  Level Estimated
Fri 07:55:00 AM 17.1367 -61.7927 136° Southeast  Level Estimated
Fri 07:56:00 AM 17.1367 -61.7927 136° Southeast  Level Estimated
Fri 07:57:00 AM 17.1367 -61.7927 136° Southeast  Level Estimated
Fri 07:58:00 AM 17.1367 -61.7927 136° Southeast  Level Estimated
Fri 07:59:00 AM 17.1367 -61.7927 136° Southeast  Level Estimated
Fri 08:00:00 AM 17.1367 -61.7927 136° Southeast  Level Estimated
Fri 08:01:00 AM 17.1367 -61.7927 136° Southeast  Level Estimated
Fri 08:02:00 AM 17.1367 -61.7927 136° Southeast  Level Estimated
Fri 08:03:00 AM 17.1367 -61.7927 136° Southeast  Level Estimated

Login

Don't have an account? Register now (free) for customized features, flight alerts, and more!